createdAt,value
2018-09-06T00:01:36.368Z,82.50
2018-09-06T00:04:04.821Z,82.60
2018-09-06T00:06:33.233Z,82.90
2018-09-06T00:09:04.864Z,82.70
2018-09-06T00:11:33.287Z,82.80
2018-09-06T00:14:01.733Z,83.00
2018-09-06T00:16:30.191Z,83.10
2018-09-06T00:18:58.603Z,84.10
2018-09-06T00:21:26.952Z,84.80
2018-09-06T00:23:55.351Z,85.30
2018-09-06T00:26:24.547Z,86.00
2018-09-06T00:28:52.982Z,86.30
2018-09-06T00:31:21.404Z,86.20
2018-09-06T00:33:49.794Z,86.10
2018-09-06T00:36:18.201Z,86.00
2018-09-06T00:38:46.592Z,85.10
2018-09-06T00:41:17.225Z,84.20
2018-09-06T00:43:45.928Z,82.90
2018-09-06T00:46:14.412Z,82.30
2018-09-06T00:48:42.823Z,82.50
2018-09-06T00:51:11.304Z,82.70
2018-09-06T00:53:39.753Z,82.70
2018-09-06T00:56:08.131Z,82.30
2018-09-06T00:58:36.527Z,82.40
2018-09-06T01:01:04.944Z,82.70
2018-09-06T01:03:33.361Z,83.00
2018-09-06T01:06:01.747Z,83.10
2018-09-06T01:08:30.225Z,83.40
2018-09-06T01:10:58.680Z,83.90
2018-09-06T01:13:27.086Z,84.00
2018-09-06T01:15:55.451Z,84.30
2018-09-06T01:18:24.757Z,84.90
2018-09-06T01:20:53.230Z,85.20
2018-09-06T01:23:21.586Z,85.30
2018-09-06T01:25:49.992Z,85.40
2018-09-06T01:28:19.884Z,85.70
2018-09-06T01:30:48.428Z,85.70
2018-09-06T01:33:16.856Z,86.00
2018-09-06T01:35:51.488Z,85.70
2018-09-06T01:38:31.050Z,85.80
2018-09-06T01:41:00.633Z,85.70
2018-09-06T01:43:29.140Z,85.90
2018-09-06T01:45:57.580Z,85.80
2018-09-06T01:48:25.976Z,85.50
2018-09-06T01:50:54.347Z,85.50
2018-09-06T01:53:22.784Z,85.10
2018-09-06T01:55:51.199Z,85.70
2018-09-06T01:58:19.616Z,85.80
2018-09-06T02:00:47.973Z,85.80
2018-09-06T02:03:16.474Z,86.00
2018-09-06T02:05:44.883Z,86.40
2018-09-06T02:08:13.284Z,86.40
2018-09-06T02:10:41.660Z,86.30
2018-09-06T02:13:10.057Z,86.10
2018-09-06T02:15:38.451Z,86.20
2018-09-06T02:18:06.831Z,86.10
2018-09-06T02:20:35.317Z,86.30
2018-09-06T02:23:03.726Z,86.60
2018-09-06T02:25:32.207Z,86.10
2018-09-06T02:28:00.679Z,86.50
2018-09-06T02:30:29.141Z,86.90
2018-09-06T02:32:57.665Z,87.00
2018-09-06T02:35:26.039Z,87.10
2018-09-06T02:37:54.395Z,86.90
2018-09-06T02:40:28.267Z,86.90
2018-09-06T02:42:57.301Z,87.00
2018-09-06T02:45:25.723Z,87.10
2018-09-06T02:47:54.492Z,87.60
2018-09-06T02:50:28.168Z,88.10
2018-09-06T02:52:57.115Z,88.10
2018-09-06T02:55:26.951Z,88.20
2018-09-06T02:57:55.352Z,88.60
2018-09-06T03:00:30.194Z,88.80
2018-09-06T03:02:58.733Z,89.10
2018-09-06T03:05:27.643Z,89.30
2018-09-06T03:07:57.154Z,89.30
2018-09-06T03:10:28.903Z,88.90
2018-09-06T03:12:57.446Z,89.40
2018-09-06T03:15:25.896Z,89.70
2018-09-06T03:17:54.215Z,89.20
2018-09-06T03:20:22.619Z,88.40
2018-09-06T03:22:51.080Z,88.30
2018-09-06T03:25:19.505Z,88.40
2018-09-06T03:27:48.010Z,88.70
2018-09-06T03:30:16.421Z,88.90
2018-09-06T03:32:44.781Z,89.10
2018-09-06T03:35:13.191Z,89.20
2018-09-06T03:37:41.620Z,89.20
2018-09-06T03:40:10.062Z,89.40
2018-09-06T03:42:38.485Z,89.70
2018-09-06T03:45:06.979Z,89.60
2018-09-06T03:47:35.400Z,89.90
2018-09-06T03:50:03.850Z,89.60
2018-09-06T03:52:32.226Z,89.60
2018-09-06T03:55:00.659Z,89.90
2018-09-06T03:57:29.089Z,90.00
2018-09-06T03:59:57.594Z,89.40
2018-09-06T04:02:25.983Z,89.10
2018-09-06T04:04:54.373Z,89.50
2018-09-06T04:07:22.796Z,89.30
2018-09-06T04:09:51.195Z,89.00
2018-09-06T04:12:19.593Z,88.90
2018-09-06T04:14:47.968Z,89.30
2018-09-06T04:17:16.423Z,89.50
2018-09-06T04:19:44.832Z,89.80
2018-09-06T04:22:13.255Z,89.40
2018-09-06T04:24:42.132Z,89.30
2018-09-06T04:27:32.409Z,89.60
2018-09-06T04:30:00.783Z,90.50
2018-09-06T04:32:29.221Z,91.20
2018-09-06T04:34:57.579Z,91.60
2018-09-06T04:37:31.327Z,92.00
2018-09-06T04:40:00.186Z,92.10
2018-09-06T04:42:28.620Z,91.80
2018-09-06T04:44:57.032Z,91.60
2018-09-06T04:47:40.186Z,91.00
2018-09-06T04:50:08.606Z,90.40
2018-09-06T04:52:37.326Z,90.00
2018-09-06T04:55:05.843Z,89.60
2018-09-06T04:57:34.326Z,89.30
2018-09-06T05:00:02.819Z,89.40
2018-09-06T05:02:31.272Z,89.80
2018-09-06T05:04:59.655Z,90.30
2018-09-06T05:07:28.150Z,90.60
2018-09-06T05:09:56.594Z,90.50
2018-09-06T05:12:25.030Z,90.90
2018-09-06T05:14:54.621Z,90.80
2018-09-06T05:17:23.094Z,90.90
2018-09-06T05:19:51.547Z,91.20
2018-09-06T05:22:19.998Z,91.30
2018-09-06T05:24:49.636Z,91.40
2018-09-06T05:27:18.460Z,91.50
2018-09-06T05:29:46.848Z,91.20
2018-09-06T05:32:15.331Z,91.00
2018-09-06T05:34:44.554Z,90.40
2018-09-06T05:37:13.246Z,90.10
2018-09-06T05:39:43.165Z,89.70
2018-09-06T05:42:11.787Z,89.00
2018-09-06T05:44:53.859Z,88.60
2018-09-06T05:47:22.400Z,88.20
2018-09-06T05:49:50.761Z,87.60
2018-09-06T05:52:19.158Z,87.40
2018-09-06T05:54:47.573Z,88.10
2018-09-06T05:57:15.976Z,87.60
2018-09-06T05:59:44.451Z,86.60
2018-09-06T06:02:12.790Z,86.20
2018-09-06T06:04:41.197Z,86.10
2018-09-06T06:07:09.937Z,85.80
2018-09-06T06:09:38.372Z,85.80
2018-09-06T06:12:06.743Z,85.60
2018-09-06T06:14:35.498Z,85.20
2018-09-06T06:17:03.908Z,85.00
2018-09-06T06:19:32.351Z,84.50
2018-09-06T06:22:00.781Z,84.80
2018-09-06T06:24:29.124Z,84.00
2018-09-06T06:26:57.577Z,83.10
2018-09-06T06:29:25.980Z,81.90
2018-09-06T06:31:54.932Z,81.90
2018-09-06T06:34:23.458Z,82.00
2018-09-06T06:36:51.857Z,81.90
2018-09-06T06:39:20.956Z,81.70
2018-09-06T06:41:49.377Z,81.40
2018-09-06T06:44:17.995Z,81.20
2018-09-06T06:46:46.371Z,81.30
2018-09-06T06:49:14.754Z,81.10
2018-09-06T06:51:43.642Z,81.10
2018-09-06T06:54:21.371Z,80.00
2018-09-06T06:56:49.747Z,79.70
2018-09-06T06:59:18.138Z,79.50
2018-09-06T07:01:47.803Z,79.60
2018-09-06T07:04:16.254Z,79.00
2018-09-06T07:06:44.629Z,79.00
2018-09-06T07:09:13.032Z,78.90
2018-09-06T07:11:41.380Z,78.70
2018-09-06T07:14:10.601Z,78.70
2018-09-06T07:16:39.018Z,78.70
2018-09-06T07:19:07.437Z,78.40
2018-09-06T07:21:38.577Z,77.90
2018-09-06T07:24:07.009Z,77.70
2018-09-06T07:26:35.384Z,76.80
2018-09-06T07:29:03.788Z,76.60
2018-09-06T07:31:32.421Z,76.50
2018-09-06T07:34:01.057Z,76.60
2018-09-06T07:36:30.385Z,76.60
2018-09-06T07:38:58.802Z,77.10
2018-09-06T07:41:27.295Z,76.90
2018-09-06T07:43:55.625Z,76.70
2018-09-06T07:46:24.029Z,76.70
2018-09-06T07:48:52.668Z,76.10
2018-09-06T07:51:21.084Z,75.90
2018-09-06T07:53:49.472Z,76.20
2018-09-06T07:56:17.916Z,75.50
2018-09-06T07:58:46.260Z,75.50
2018-09-06T08:01:14.677Z,75.50
2018-09-06T08:03:43.086Z,74.60
2018-09-06T08:06:11.491Z,74.60
2018-09-06T08:08:39.880Z,74.30
2018-09-06T08:11:08.309Z,74.50
2018-09-06T08:13:36.693Z,73.90
2018-09-06T08:16:05.112Z,74.40
2018-09-06T08:18:33.585Z,73.20
2018-09-06T08:21:02.063Z,72.80
2018-09-06T08:23:30.515Z,72.80
2018-09-06T08:25:59.582Z,72.20
2018-09-06T08:28:27.985Z,71.90
2018-09-06T08:30:56.552Z,71.50
2018-09-06T08:33:24.833Z,70.60
2018-09-06T08:35:53.250Z,70.90
2018-09-06T08:38:21.668Z,70.70
2018-09-06T08:40:50.053Z,70.90
2018-09-06T08:43:18.425Z,71.30
2018-09-06T08:45:46.871Z,72.10
2018-09-06T08:48:15.352Z,71.80
2018-09-06T08:50:43.734Z,71.30
2018-09-06T08:53:12.338Z,70.80
2018-09-06T08:55:40.805Z,70.00
2018-09-06T08:58:10.246Z,69.40
2018-09-06T09:00:41.637Z,69.20
2018-09-06T09:03:11.744Z,68.70
2018-09-06T09:05:40.298Z,68.20
2018-09-06T09:08:08.703Z,67.80
2018-09-06T09:10:37.445Z,67.00
2018-09-06T09:13:06.286Z,67.20
2018-09-06T09:15:34.643Z,66.00
2018-09-06T09:18:04.285Z,66.40
2018-09-06T09:20:33.164Z,66.30
2018-09-06T09:23:01.946Z,66.30
2018-09-06T09:25:30.409Z,64.60
2018-09-06T09:27:59.019Z,64.70
2018-09-06T09:30:27.635Z,64.50
2018-09-06T09:32:56.037Z,64.40
2018-09-06T09:35:24.461Z,65.30
2018-09-06T09:37:52.961Z,65.70
2018-09-06T09:40:21.399Z,66.40
2018-09-06T09:42:49.780Z,66.20
2018-09-06T09:45:18.264Z,66.60
2018-09-06T09:47:46.737Z,66.30
2018-09-06T09:52:42.705Z,65.50
2018-09-06T09:55:11.106Z,65.40
2018-09-06T09:57:39.538Z,65.00
2018-09-06T10:00:07.984Z,63.00
2018-09-06T10:02:41.797Z,62.40
2018-09-06T10:05:15.666Z,61.60
2018-09-06T10:07:49.386Z,60.70
2018-09-06T10:10:18.627Z,59.80
2018-09-06T10:12:47.051Z,60.40
2018-09-06T10:15:15.560Z,61.40
2018-09-06T10:17:43.936Z,62.60
2018-09-06T10:20:12.301Z,63.10
2018-09-06T10:22:40.738Z,64.00
2018-09-06T10:25:09.165Z,64.50
2018-09-06T10:27:37.668Z,64.90
2018-09-06T10:30:06.080Z,64.70
2018-09-06T10:32:35.129Z,64.80
2018-09-06T10:35:03.552Z,65.10
2018-09-06T10:37:32.733Z,64.80
2018-09-06T10:40:01.181Z,65.10
2018-09-06T10:42:29.603Z,65.70
2018-09-06T10:44:58.034Z,64.80
2018-09-06T10:47:26.509Z,65.10
2018-09-06T10:49:54.998Z,65.00
2018-09-06T10:52:23.696Z,64.90
2018-09-06T10:54:52.089Z,64.90
2018-09-06T10:57:20.527Z,65.20
2018-09-06T10:59:48.996Z,64.70
2018-09-06T11:02:17.452Z,64.40
2018-09-06T11:04:45.975Z,64.30
2018-09-06T11:07:14.383Z,64.70
2018-09-06T11:09:42.780Z,64.50
2018-09-06T11:12:11.176Z,65.00
2018-09-06T11:14:39.599Z,65.10
2018-09-06T11:17:08.163Z,64.90
2018-09-06T11:19:36.737Z,65.40
2018-09-06T11:22:05.364Z,66.80
2018-09-06T11:24:33.650Z,68.70
2018-09-06T11:27:02.110Z,69.60
2018-09-06T11:29:30.533Z,69.60
2018-09-06T11:31:59.649Z,69.10
2018-09-06T11:34:28.089Z,70.00
2018-09-06T11:36:56.494Z,70.80
2018-09-06T11:39:25.032Z,71.90
2018-09-06T11:41:53.463Z,70.80
2018-09-06T11:44:21.843Z,70.40
2018-09-06T11:46:50.308Z,70.10
2018-09-06T11:49:18.741Z,70.10
2018-09-06T11:51:47.270Z,68.90
2018-09-06T11:54:15.648Z,68.90
2018-09-06T11:56:44.074Z,68.60
2018-09-06T11:59:12.496Z,66.90
2018-09-06T12:01:40.925Z,65.40
2018-09-06T12:04:09.573Z,64.70
2018-09-06T12:06:38.041Z,64.30
2018-09-06T12:09:06.872Z,65.30
2018-09-06T12:11:36.140Z,65.80
2018-09-06T12:14:04.621Z,64.90
2018-09-06T12:16:33.160Z,64.60
2018-09-06T12:19:02.418Z,65.10
2018-09-06T12:21:30.994Z,66.00
2018-09-06T12:24:00.243Z,66.40
2018-09-06T12:26:28.968Z,67.00
2018-09-06T12:28:57.389Z,67.60
2018-09-06T12:31:25.851Z,68.80
2018-09-06T12:33:54.375Z,69.30
2018-09-06T12:36:22.812Z,69.90
2018-09-06T12:38:51.488Z,69.90
2018-09-06T12:41:19.964Z,69.80
2018-09-06T12:43:48.407Z,69.60
2018-09-06T12:46:16.827Z,67.50
2018-09-06T12:48:45.341Z,67.80
2018-09-06T12:51:13.725Z,66.60
2018-09-06T12:53:42.185Z,67.60
2018-09-06T12:56:10.581Z,67.50
2018-09-06T12:58:39.012Z,67.80
2018-09-06T13:01:07.544Z,67.70
2018-09-06T13:03:35.981Z,66.90
2018-09-06T13:06:04.428Z,67.10
2018-09-06T13:08:32.807Z,67.30
2018-09-06T13:11:01.229Z,67.80
2018-09-06T13:13:30.553Z,67.50
2018-09-06T13:15:58.964Z,65.10
2018-09-06T13:18:27.437Z,62.00
2018-09-06T13:20:55.824Z,60.90
2018-09-06T13:23:24.182Z,60.40
2018-09-06T13:25:52.646Z,62.50
2018-09-06T13:28:21.488Z,63.20
2018-09-06T13:30:49.985Z,63.20
2018-09-06T13:33:18.413Z,62.30
2018-09-06T13:35:46.795Z,60.20
2018-09-06T13:38:15.242Z,59.70
2018-09-06T13:40:43.685Z,59.20
2018-09-06T13:43:12.062Z,59.20
2018-09-06T13:45:40.440Z,59.70
2018-09-06T13:48:08.880Z,61.10
2018-09-06T13:50:37.323Z,62.10
2018-09-06T13:53:05.773Z,62.50
2018-09-06T13:55:34.155Z,62.80
2018-09-06T13:58:02.564Z,64.50
2018-09-06T14:00:31.976Z,65.50
2018-09-06T14:03:00.346Z,65.80
2018-09-06T14:05:28.762Z,65.80
2018-09-06T14:08:04.553Z,65.60
2018-09-06T14:10:32.956Z,65.20
2018-09-06T14:13:01.384Z,65.30
2018-09-06T14:15:29.872Z,65.60
2018-09-06T14:17:58.258Z,65.80
2018-09-06T14:20:26.739Z,65.20
2018-09-06T14:22:55.107Z,65.40
2018-09-06T14:25:23.570Z,65.70
2018-09-06T14:27:51.997Z,65.70
2018-09-06T14:30:20.350Z,65.10
2018-09-06T14:32:49.682Z,65.60
2018-09-06T14:35:18.183Z,65.80
2018-09-06T14:37:46.606Z,65.70
2018-09-06T14:40:15.038Z,65.70
2018-09-06T14:42:43.483Z,66.00
2018-09-06T14:45:11.944Z,66.20
2018-09-06T14:47:40.418Z,65.50
2018-09-06T14:50:08.818Z,65.90
2018-09-06T14:52:37.289Z,66.20
2018-09-06T14:55:05.717Z,65.40
2018-09-06T14:57:34.125Z,66.40
2018-09-06T15:00:02.604Z,68.60
2018-09-06T15:02:31.025Z,68.50
2018-09-06T15:04:59.457Z,69.30
2018-09-06T15:07:28.810Z,70.10
2018-09-06T15:09:57.222Z,70.20
2018-09-06T15:12:25.823Z,69.60
2018-09-06T15:14:54.288Z,69.30
2018-09-06T15:17:22.699Z,69.10
2018-09-06T15:19:51.259Z,69.10
2018-09-06T15:22:19.717Z,68.80
2018-09-06T15:24:48.199Z,68.60
2018-09-06T15:27:16.672Z,68.50
2018-09-06T15:29:45.123Z,68.90
2018-09-06T15:32:13.492Z,69.10
2018-09-06T15:34:41.941Z,69.00
2018-09-06T15:37:10.329Z,69.50
2018-09-06T15:39:38.770Z,70.10
2018-09-06T15:42:07.776Z,70.40
2018-09-06T15:44:36.345Z,70.70
2018-09-06T15:47:04.809Z,71.40
2018-09-06T15:49:33.321Z,71.70
2018-09-06T15:52:01.688Z,71.90
2018-09-06T15:54:30.116Z,72.10
2018-09-06T15:56:58.530Z,71.80
2018-09-06T15:59:26.960Z,72.00
2018-09-06T16:01:55.437Z,71.90
2018-09-06T16:04:23.825Z,72.40
2018-09-06T16:06:52.257Z,72.80
2018-09-06T16:09:20.702Z,72.90
2018-09-06T16:11:49.116Z,73.20
2018-09-06T16:14:17.570Z,73.20
2018-09-06T16:16:46.777Z,73.30
2018-09-06T16:19:15.177Z,73.50
2018-09-06T16:21:43.621Z,73.80
2018-09-06T16:24:12.091Z,73.80
2018-09-06T16:26:40.443Z,73.90
2018-09-06T16:29:08.832Z,74.00
2018-09-06T16:31:37.253Z,74.00
2018-09-06T16:34:09.172Z,74.40
2018-09-06T16:36:37.675Z,74.30
2018-09-06T16:39:07.451Z,74.50
2018-09-06T16:41:35.840Z,75.00
2018-09-06T16:44:04.802Z,74.90
2018-09-06T16:46:33.220Z,75.30
2018-09-06T16:49:01.693Z,75.50
2018-09-06T16:51:30.111Z,75.70
2018-09-06T16:53:58.531Z,75.90
2018-09-06T16:56:26.980Z,76.20
2018-09-06T16:58:55.371Z,76.30
2018-09-06T17:01:23.774Z,76.60
2018-09-06T17:03:53.066Z,76.80
2018-09-06T17:06:21.651Z,77.00
2018-09-06T17:08:50.294Z,77.10
2018-09-06T17:11:18.734Z,77.50
2018-09-06T17:13:47.175Z,77.20
2018-09-06T17:16:15.604Z,77.70
2018-09-06T17:18:44.059Z,77.90
2018-09-06T17:21:12.521Z,78.10
2018-09-06T17:23:40.984Z,78.30
2018-09-06T17:26:09.513Z,78.60
2018-09-06T17:28:37.909Z,78.90
2018-09-06T17:31:06.816Z,79.20
2018-09-06T17:33:35.216Z,79.10
2018-09-06T17:36:03.673Z,79.30
2018-09-06T17:38:32.147Z,79.50
2018-09-06T17:41:01.292Z,79.60
2018-09-06T17:43:29.709Z,79.50
2018-09-06T17:45:58.161Z,78.70
2018-09-06T17:48:26.681Z,78.30
2018-09-06T17:50:55.198Z,78.40
2018-09-06T17:53:23.669Z,78.30
2018-09-06T17:55:52.145Z,78.00
2018-09-06T17:58:20.588Z,78.00
2018-09-06T18:01:02.781Z,77.90
2018-09-06T18:03:31.278Z,78.00
2018-09-06T18:05:59.718Z,78.30
2018-09-06T18:08:28.207Z,78.60
2018-09-06T18:10:56.720Z,78.80
2018-09-06T18:13:25.130Z,78.80
2018-09-06T18:15:53.586Z,78.40
2018-09-06T18:18:22.043Z,78.20
2018-09-06T18:20:50.485Z,78.60
2018-09-06T18:23:18.958Z,78.80
2018-09-06T18:25:47.424Z,78.90
2018-09-06T18:28:15.820Z,79.10
2018-09-06T18:30:44.298Z,79.50
2018-09-06T18:33:12.751Z,79.80
2018-09-06T18:35:41.268Z,79.90
2018-09-06T18:38:09.680Z,80.20
2018-09-06T18:40:38.180Z,80.40
2018-09-06T18:43:06.748Z,80.70
2018-09-06T18:45:35.268Z,80.90
2018-09-06T18:48:04.609Z,81.20
2018-09-06T18:50:33.125Z,81.40
2018-09-06T18:53:01.594Z,81.60
2018-09-06T18:55:30.101Z,81.80
2018-09-06T18:57:58.644Z,81.90
2018-09-06T19:00:27.031Z,82.00
2018-09-06T19:02:55.470Z,82.30
2018-09-06T19:05:23.879Z,82.50
2018-09-06T19:07:52.315Z,83.00
2018-09-06T19:10:20.773Z,83.00
2018-09-06T19:12:49.759Z,83.60
2018-09-06T19:15:18.229Z,84.10
2018-09-06T19:17:46.647Z,84.60
2018-09-06T19:20:15.108Z,84.90
2018-09-06T19:22:43.613Z,85.10
2018-09-06T19:25:12.232Z,85.60
2018-09-06T19:27:40.623Z,85.80
2018-09-06T19:30:09.161Z,86.10
2018-09-06T19:32:37.671Z,86.50
2018-09-06T19:35:06.192Z,86.70
2018-09-06T19:37:34.589Z,86.70
2018-09-06T19:40:03.652Z,86.90
2018-09-06T19:42:32.476Z,87.10
2018-09-06T19:45:00.954Z,87.40
2018-09-06T19:47:29.476Z,87.60
2018-09-06T19:49:57.910Z,87.60
2018-09-06T19:52:26.372Z,87.90
2018-09-06T19:54:54.880Z,88.10
2018-09-06T19:57:23.741Z,88.40
2018-09-06T19:59:54.122Z,88.60
2018-09-06T20:02:26.674Z,88.80
2018-09-06T20:04:55.943Z,88.20
2018-09-06T20:07:24.536Z,88.50
2018-09-06T20:09:53.061Z,88.60
2018-09-06T20:12:41.114Z,88.50
2018-09-06T20:15:21.173Z,88.70
2018-09-06T20:17:49.979Z,88.60
2018-09-06T20:20:22.002Z,88.40
2018-09-06T20:22:50.496Z,88.00
2018-09-06T20:25:18.968Z,87.60
2018-09-06T20:27:47.430Z,87.80
2018-09-06T20:30:15.952Z,87.90
2018-09-06T20:32:46.118Z,87.90
2018-09-06T20:35:14.659Z,88.00
2018-09-06T20:37:44.514Z,88.10
2018-09-06T20:40:12.994Z,87.90
2018-09-06T20:42:41.441Z,87.80
2018-09-06T20:45:09.888Z,87.70
2018-09-06T20:47:42.277Z,87.60
2018-09-06T20:50:10.680Z,87.60
2018-09-06T20:52:39.119Z,87.60
2018-09-06T20:55:07.504Z,87.60
2018-09-06T20:57:35.896Z,87.60
2018-09-06T21:00:04.477Z,87.60
2018-09-06T21:02:39.768Z,87.50
2018-09-06T21:05:11.487Z,87.70
2018-09-06T21:07:40.007Z,87.80
2018-09-06T21:10:08.404Z,88.00
2018-09-06T21:12:36.852Z,88.80
2018-09-06T21:15:05.306Z,88.80
2018-09-06T21:17:34.370Z,89.10
2018-09-06T21:20:02.830Z,88.90
2018-09-06T21:22:31.282Z,89.30
2018-09-06T21:24:59.960Z,89.50
2018-09-06T21:27:28.444Z,89.70
2018-09-06T21:29:57.814Z,89.70
2018-09-06T21:32:26.324Z,89.90
2018-09-06T21:34:55.929Z,89.90
2018-09-06T21:37:24.267Z,89.70
2018-09-06T21:39:52.767Z,89.60
2018-09-06T21:42:21.093Z,89.70
2018-09-06T21:44:49.530Z,89.70
2018-09-06T21:47:17.924Z,89.50
2018-09-06T21:49:46.307Z,89.60
2018-09-06T21:52:14.789Z,89.50
2018-09-06T21:54:43.230Z,89.30
2018-09-06T21:57:11.645Z,89.00
2018-09-06T21:59:40.045Z,89.00
2018-09-06T22:02:12.697Z,89.00
2018-09-06T22:04:41.203Z,88.80
2018-09-06T22:07:09.625Z,88.70
2018-09-06T22:09:38.090Z,88.80
2018-09-06T22:12:11.307Z,88.70
2018-09-06T22:14:39.724Z,88.80
2018-09-06T22:17:08.150Z,88.90
2018-09-06T22:19:36.549Z,88.90
2018-09-06T22:22:04.929Z,89.10
2018-09-06T22:24:33.421Z,89.10
2018-09-06T22:27:01.853Z,89.10
2018-09-06T22:29:30.357Z,89.30
2018-09-06T22:31:58.909Z,89.30
2018-09-06T22:37:03.804Z,89.30
2018-09-06T22:39:32.321Z,89.20
2018-09-06T22:42:00.860Z,89.10
2018-09-06T22:44:29.444Z,89.10
2018-09-06T22:46:57.909Z,89.20
2018-09-06T22:49:26.292Z,89.20
2018-09-06T22:51:54.756Z,89.40
2018-09-06T22:54:23.203Z,89.60
2018-09-06T22:56:51.616Z,89.60
2018-09-06T22:59:19.984Z,89.80
2018-09-06T23:01:48.534Z,90.00
2018-09-06T23:04:16.929Z,90.20
2018-09-06T23:06:46.222Z,90.70
2018-09-06T23:09:14.633Z,91.10
2018-09-06T23:11:43.107Z,91.40
2018-09-06T23:14:11.550Z,91.60
2018-09-06T23:16:39.934Z,91.90
2018-09-06T23:19:08.459Z,92.10
2018-09-06T23:21:36.915Z,92.20
2018-09-06T23:24:05.344Z,92.40
2018-09-06T23:26:33.698Z,92.60
2018-09-06T23:29:02.290Z,92.80
2018-09-06T23:31:30.712Z,92.90
2018-09-06T23:33:59.077Z,93.00
2018-09-06T23:36:27.562Z,93.00
2018-09-06T23:38:56.020Z,93.10
2018-09-06T23:41:25.984Z,93.20
2018-09-06T23:43:54.383Z,93.20
2018-09-06T23:46:22.824Z,93.30
2018-09-06T23:48:51.236Z,93.50
2018-09-06T23:51:19.708Z,93.40
2018-09-06T23:53:48.113Z,93.40
2018-09-06T23:56:16.522Z,93.30
2018-09-06T23:58:44.916Z,93.30
